Main page
METAR-TAF:

METAR-TAF

Airports :

Stinson Municipal Airport

San Antonio, Texas, United States

latitude: 29-20-20N, longitude: 098-28-18W, elevation: 574 ft

Current weather observation

The report was made 58 minutes ago, at 21:53 UTC
Wind 9 mph from the North/Northeast
Temperature 64°F
Humidity 30%
Pressure 30.24 in. Hg
Visibility: 10 miles
Clear sky

METAR: KSSF 202153Z 02008KT 10SM CLR 18/00 A3024 RMK AO2 SLP238 T01780000

Time: 16:51 (22:51 UTC)

Forecast

The report was made 5 hours and 12 minutes ago, at 17:39 UTC
Forecast valid from 20 at 18 UTC to 21 at 18 UTC
Wind 12 mph from the North/Northeast
Visibility: 6 miles
Scattered clouds at a height of 25000 ft
From 21 at 1500 UTC
Wind 6 mph from the Northeast
Visibility: 6 miles
Broken clouds at a height of 5000 ft

TAF: KSSF 201739Z 2018/2118 03010KT P6SM SCT250 FM211500 05005KT P6SM BKN050

Weather observations and forecasts of more than 4000 airports (METAR and TAF reports).

The available stations are represented by yellow and red dots on the map.

Hover mouse over dot to see the name of the station.

Then click to see weather observations and forecasts.

To change the map : click on the green buttons with a black cross to zoom in, on the green button with a dash to zoom out, or on the green arrows for adjacent maps.


METAR-TAF: